KCVO - Corvallis, OR
Updated: Sat, 27-May-2017 2:35am PDT
Clear
Clear
 Wind from calm
Wind: Calm
Temperature: 55°F , 13°C
Dew Point: 46°F , 8°C
Humidity: 72%
Barometer: 30.02 inHg , 1016.6 hPa
Clouds: Clear
Visibility: 10 miles , 16 km
2017/05/27 09:35 KCVO 270935Z 00000KT 10SM CLR 13/08 A3002 RMK AO1